Time;durP1;ratioP1;P1;durP2;ratioP2;P2;SDS_P1;SDS_P2;PMS_P1;PMS_P2;Temp;Humidity;BMP_temperature;BMP_pressure;BME280_temperature;BME280_humidity;BME280_pressure;Samples;Min_cycle;Max_cycle;Signal;HPM_P1;HPM_P2
2022/07/27 00:02:36;;;;;;;7.23;2.80;;;;;;;15.57;95.99;97555.97;7577254;23;20205;-71
2022/07/27 00:05:38;;;;;;;4.37;3.30;;;;;;;15.59;96.14;97556.59;7578642;23;20212;-71
2022/07/27 00:08:40;;;;;;;3.13;2.93;;;;;;;15.59;96.37;97554.78;7578361;23;20587;-71
2022/07/27 00:11:42;;;;;;;4.00;3.60;;;;;;;15.64;96.50;97559.66;7579005;23;20638;-70
2022/07/27 00:14:44;;;;;;;5.63;5.13;;;;;;;15.68;96.14;97555.66;7579709;23;20216;-70
2022/07/27 00:17:46;;;;;;;3.37;3.07;;;;;;;15.61;95.92;97552.81;7577244;23;20209;-71
2022/07/27 00:20:48;;;;;;;4.80;3.20;;;;;;;15.55;96.01;97547.28;7578268;23;20221;-70
2022/07/27 00:23:52;;;;;;;4.03;3.07;;;;;;;15.54;95.99;97543.81;7580635;23;20216;-70
2022/07/27 00:26:54;;;;;;;3.10;2.80;;;;;;;15.57;96.06;97546.16;7578843;23;20209;-70
2022/07/27 00:29:56;;;;;;;3.50;2.40;;;;;;;15.56;96.01;97541.81;7578508;23;20209;-70
2022/07/27 00:32:59;;;;;;;3.00;2.80;;;;;;;15.59;96.05;97532.66;7577060;23;20552;-71
2022/07/27 00:36:01;;;;;;;3.83;2.67;;;;;;;15.56;96.03;97539.16;7578296;23;20202;-70
2022/07/27 00:39:03;;;;;;;4.87;3.00;;;;;;;15.58;96.12;97545.13;7605641;23;20263;-70
2022/07/27 00:42:06;;;;;;;4.03;3.13;;;;;;;15.59;96.23;97543.31;7615226;23;20205;-70
2022/07/27 00:45:09;;;;;;;2.80;2.60;;;;;;;15.57;96.31;97540.84;7615144;23;20259;-70
2022/07/27 00:48:11;;;;;;;4.27;3.23;;;;;;;15.56;96.48;97538.31;7588966;23;20187;-70
2022/07/27 00:51:15;;;;;;;5.83;4.50;;;;;;;15.58;96.43;97542.47;7613539;23;20188;-70
2022/07/27 00:54:18;;;;;;;2.93;2.70;;;;;;;15.58;96.55;97550.44;7622598;23;20177;-71
2022/07/27 00:57:21;;;;;;;6.03;3.83;;;;;;;15.56;96.59;97552.47;7596107;23;21214;-70
2022/07/27 01:00:23;;;;;;;4.23;3.13;;;;;;;15.53;96.50;97544.75;7616102;23;20384;-70
2022/07/27 01:03:26;;;;;;;6.70;5.57;;;;;;;15.54;96.71;97545.59;7616951;23;20204;-70
2022/07/27 01:06:31;;;;;;;4.57;3.27;;;;;;;15.51;97.06;97547.56;7592014;23;20687;-70
2022/07/27 01:12:54;;;;;;;3.20;2.57;;;;;;;15.45;97.32;97542.88;7616034;23;20216;-70
2022/07/27 01:15:57;;;;;;;3.00;2.70;;;;;;;15.44;97.26;97551.84;7618465;23;20220;-71
2022/07/27 01:18:59;;;;;;;4.13;2.90;;;;;;;15.44;97.40;97559.84;7616757;23;20267;-71
2022/07/27 01:22:02;;;;;;;2.90;2.70;;;;;;;15.47;97.51;97546.19;7616064;23;20302;-71
2022/07/27 01:25:05;;;;;;;3.13;2.50;;;;;;;15.47;97.89;97550.72;7616750;23;20209;-70
2022/07/27 01:28:07;;;;;;;3.43;2.57;;;;;;;15.46;97.67;97541.91;7590699;23;20216;-70
2022/07/27 01:31:09;;;;;;;2.80;2.60;;;;;;;15.44;98.07;97535.91;7590961;23;20267;-70
2022/07/27 01:34:11;;;;;;;2.93;2.70;;;;;;;15.41;97.79;97549.50;7615994;23;20216;-70
2022/07/27 01:37:13;;;;;;;6.10;3.07;;;;;;;15.44;97.89;97532.41;7616533;23;20224;-70
2022/07/27 01:40:15;;;;;;;2.97;2.77;;;;;;;15.41;97.85;97541.53;7615680;23;20212;-70
2022/07/27 01:43:17;;;;;;;2.77;2.53;;;;;;;15.42;97.69;97537.88;7590939;23;20599;-70
2022/07/27 01:46:20;;;;;;;3.10;2.63;;;;;;;15.40;97.62;97528.38;7616892;23;20274;-70
2022/07/27 01:49:22;;;;;;;5.40;2.57;;;;;;;15.34;97.35;97529.84;7616448;23;20243;-69
2022/07/27 01:52:24;;;;;;;4.73;2.97;;;;;;;15.38;97.62;97523.22;7617980;23;20276;-70
2022/07/27 01:55:26;;;;;;;3.27;2.80;;;;;;;15.37;97.37;97524.19;7618005;23;20321;-70
2022/07/27 01:58:42;;;;;;;2.77;2.53;;;;;;;15.38;97.35;97522.38;7616100;23;20281;-70
2022/07/27 02:01:44;;;;;;;4.87;2.70;;;;;;;15.39;97.07;97532.84;7591920;23;20311;-70
2022/07/27 02:04:46;;;;;;;5.20;2.50;;;;;;;15.42;96.94;97523.75;7590596;23;20688;-70
2022/07/27 02:07:49;;;;;;;3.87;2.53;;;;;;;15.36;96.56;97525.22;7618244;23;20724;-70
2022/07/27 02:14:11;;;;;;;3.87;2.40;;;;;;;15.33;96.51;97514.88;7617842;23;20217;-70
2022/07/27 02:17:13;;;;;;;4.70;2.87;;;;;;;15.35;96.53;97520.06;7617087;23;20244;-71
2022/07/27 02:20:22;;;;;;;4.70;2.70;;;;;;;15.38;96.26;97525.03;7615574;23;20209;-70
2022/07/27 02:23:24;;;;;;;3.00;2.80;;;;;;;15.42;96.75;97519.25;7589874;23;20213;-70
2022/07/27 02:26:26;;;;;;;3.30;2.80;;;;;;;15.42;96.05;97521.91;7589893;23;20295;-70
2022/07/27 02:29:29;;;;;;;3.47;2.83;;;;;;;15.43;96.22;97520.09;7615882;23;20295;-70
2022/07/27 02:32:31;;;;;;;2.77;2.57;;;;;;;15.40;96.26;97517.75;7615683;23;20740;-70
2022/07/27 02:35:33;;;;;;;2.37;2.00;;;;;;;15.43;96.40;97518.28;7615565;23;20287;-70
2022/07/27 02:38:35;;;;;;;3.63;2.80;;;;;;;15.42;96.30;97515.75;7615622;23;20299;-71
2022/07/27 02:41:37;;;;;;;3.53;2.40;;;;;;;15.38;96.24;97517.88;7615462;23;20599;-70
2022/07/27 02:44:39;;;;;;;2.87;2.40;;;;;;;15.34;96.16;97519.22;7617480;23;20712;-71
2022/07/27 02:47:42;;;;;;;2.87;2.40;;;;;;;15.31;96.17;97513.38;7616882;23;20287;-71
2022/07/27 02:50:44;;;;;;;2.30;2.07;;;;;;;15.27;96.21;97515.50;7589276;23;20606;-71
2022/07/27 02:53:46;;;;;;;2.97;2.63;;;;;;;15.22;96.26;97514.31;7615003;23;20217;-70
2022/07/27 02:56:48;;;;;;;2.37;2.17;;;;;;;15.19;96.32;97511.94;7615297;23;20588;-70
2022/07/27 02:59:50;;;;;;;2.67;2.47;;;;;;;15.17;96.24;97509.47;7616330;23;20597;-70
2022/07/27 03:02:53;;;;;;;2.67;2.47;;;;;;;15.15;96.25;97506.13;7615016;23;20216;-70
2022/07/27 03:05:55;;;;;;;2.87;2.60;;;;;;;15.14;96.44;97512.44;7614489;23;20529;-71
2022/07/27 03:08:58;;;;;;;3.27;2.10;;;;;;;15.11;96.38;97510.91;7589469;23;20208;-70
2022/07/27 03:12:00;;;;;;;4.33;2.90;;;;;;;15.10;96.62;97511.91;7617520;23;20631;-70
2022/07/27 03:15:03;;;;;;;3.70;2.23;;;;;;;15.10;96.72;97505.75;7588933;23;20291;-69
2022/07/27 03:18:05;;;;;;;3.73;2.20;;;;;;;15.10;96.41;97516.38;7590255;23;20232;-70
2022/07/27 03:21:07;;;;;;;5.13;2.90;;;;;;;15.08;96.56;97526.31;7615043;23;20208;-69
2022/07/27 03:24:11;;;;;;;2.73;2.53;;;;;;;15.08;96.69;97515.69;7589622;23;20624;-70
2022/07/27 03:27:13;;;;;;;3.90;2.87;;;;;;;15.05;96.57;97524.00;7615296;23;20184;-70
2022/07/27 03:30:15;;;;;;;3.33;3.00;;;;;;;15.03;96.49;97518.00;7615383;23;20204;-70
2022/07/27 03:33:17;;;;;;;4.47;2.57;;;;;;;15.05;96.71;97521.34;7589446;23;20285;-69
2022/07/27 03:36:20;;;;;;;4.03;2.90;;;;;;;15.06;96.62;97525.66;7614981;23;20200;-69
2022/07/27 03:39:22;;;;;;;4.40;2.60;;;;;;;15.05;96.83;97524.84;7590222;23;20216;-69
2022/07/27 03:42:24;;;;;;;2.93;2.13;;;;;;;15.06;96.67;97523.00;7614543;23;20275;-69
2022/07/27 03:45:26;;;;;;;3.37;2.80;;;;;;;15.07;96.61;97520.16;7591452;23;20565;-69
2022/07/27 03:48:28;;;;;;;3.03;2.50;;;;;;;15.07;96.39;97525.50;7589883;23;20208;-69
2022/07/27 03:51:30;;;;;;;4.00;2.53;;;;;;;15.09;96.25;97528.84;7613980;23;20634;-69
2022/07/27 03:54:32;;;;;;;3.33;3.03;;;;;;;15.12;96.67;97536.50;7614348;23;20279;-69
2022/07/27 03:57:35;;;;;;;3.00;2.80;;;;;;;15.12;96.55;97538.31;7588840;23;20212;-69
2022/07/27 04:00:37;;;;;;;5.33;2.67;;;;;;;15.11;96.16;97534.00;7615505;23;20216;-70
2022/07/27 04:03:39;;;;;;;2.70;2.50;;;;;;;15.06;96.28;97531.00;7614097;23;20220;-71
2022/07/27 04:06:45;;;;;;;5.03;2.40;;;;;;;15.06;96.42;97536.31;7613484;23;20213;-70
2022/07/27 04:09:47;;;;;;;3.00;2.70;;;;;;;15.06;96.44;97536.31;7615137;23;20684;-69
2022/07/27 04:12:50;;;;;;;4.47;2.70;;;;;;;15.10;96.54;97533.16;7615328;23;20654;-69
2022/07/27 04:15:52;;;;;;;3.87;2.83;;;;;;;15.19;96.54;97535.88;7589127;23;20731;-70
2022/07/27 04:18:54;;;;;;;3.10;2.77;;;;;;;15.20;96.31;97535.72;7613965;23;20212;-69
2022/07/27 04:21:56;;;;;;;3.23;2.93;;;;;;;15.22;96.42;97533.75;7587113;23;20239;-69
2022/07/27 04:24:58;;;;;;;3.57;2.47;;;;;;;15.24;96.42;97537.09;7614388;23;20244;-69
2022/07/27 04:28:00;;;;;;;2.70;2.50;;;;;;;15.28;96.20;97526.97;7615451;23;20537;-69
2022/07/27 04:31:02;;;;;;;3.50;2.80;;;;;;;15.31;96.16;97539.94;7587755;23;20613;-69
2022/07/27 04:34:04;;;;;;;3.83;2.70;;;;;;;15.32;96.13;97526.50;7616004;23;20680;-70
2022/07/27 04:37:06;;;;;;;3.20;2.43;;;;;;;15.40;96.16;97529.22;7616455;23;20226;-70
2022/07/27 04:40:09;;;;;;;2.60;2.40;;;;;;;15.48;96.14;97523.09;7615967;23;20239;-70
2022/07/27 04:43:12;;;;;;;4.40;2.97;;;;;;;15.55;96.10;97531.34;7617237;23;20274;-70
2022/07/27 04:46:14;;;;;;;3.90;2.50;;;;;;;15.59;95.73;97527.34;7616453;23;20212;-70
2022/07/27 04:49:16;;;;;;;2.60;2.40;;;;;;;15.63;95.74;97528.72;7616329;23;20750;-70
2022/07/27 04:52:18;;;;;;;2.80;2.60;;;;;;;15.65;95.91;97526.72;7591041;23;20676;-70
2022/07/27 04:55:27;;;;;;;6.53;2.83;;;;;;;15.68;95.99;97527.22;7616416;23;20223;-69
2022/07/27 04:58:29;;;;;;;2.83;2.63;;;;;;;15.72;96.30;97525.09;7616691;23;20291;-70
2022/07/27 05:01:31;;;;;;;2.83;2.50;;;;;;;15.77;96.06;97526.28;7616914;23;20220;-70
2022/07/27 05:04:36;;;;;;;4.13;2.47;;;;;;;15.82;96.03;97528.47;7589513;23;20231;-70
2022/07/27 05:07:38;;;;;;;3.30;2.30;;;;;;;15.84;95.96;97529.16;7590040;23;20214;-70
2022/07/27 05:10:40;;;;;;;3.47;2.80;;;;;;;15.85;95.93;97541.47;7622150;23;20212;-70
2022/07/27 05:13:42;;;;;;;2.40;2.30;;;;;;;15.84;95.73;97543.28;7617285;23;20219;-70
2022/07/27 05:16:44;;;;;;;3.17;2.63;;;;;;;15.86;95.85;97537.81;7597751;23;20216;-70
2022/07/27 05:19:46;;;;;;;2.80;2.60;;;;;;;15.89;95.63;97540.13;7591226;23;20232;-70
2022/07/27 05:22:48;;;;;;;2.43;2.23;;;;;;;15.95;95.73;97547.50;7617350;23;20252;-70
2022/07/27 05:25:50;;;;;;;2.40;2.20;;;;;;;16.02;95.43;97551.19;7597564;23;20232;-70
2022/07/27 05:28:52;;;;;;;3.00;2.37;;;;;;;16.08;95.45;97552.34;7623287;23;20283;-69
2022/07/27 05:31:54;;;;;;;2.53;2.30;;;;;;;16.12;94.85;97549.22;7615327;23;20212;-69
2022/07/27 05:34:56;;;;;;;4.37;2.50;;;;;;;16.16;94.94;97550.59;7616746;23;20658;-70
2022/07/27 05:37:59;;;;;;;2.43;2.20;;;;;;;16.23;94.70;97553.44;7589967;23;20546;-70
2022/07/27 05:41:01;;;;;;;2.60;2.40;;;;;;;16.29;94.75;97555.44;7589272;23;20236;-70
2022/07/27 05:44:04;;;;;;;3.57;2.40;;;;;;;16.37;94.69;97565.31;7591512;23;20263;-70
2022/07/27 05:47:06;;;;;;;2.20;2.10;;;;;;;16.44;94.61;97558.31;7589084;23;20521;-67
2022/07/27 05:50:13;;;;;;;2.90;2.70;;;;;;;16.50;94.44;97555.00;7616080;23;20224;-68
2022/07/27 05:53:15;;;;;;;2.50;2.30;;;;;;;16.55;94.39;97564.19;7614809;23;20227;-68
2022/07/27 05:56:17;;;;;;;5.30;2.30;;;;;;;16.60;94.70;97563.66;7615857;23;20212;-68
2022/07/27 05:59:19;;;;;;;3.10;2.37;;;;;;;16.69;94.46;97572.53;7617474;23;20708;-68
2022/07/27 06:02:21;;;;;;;2.73;2.40;;;;;;;16.78;93.98;97569.72;7614357;23;20707;-68
2022/07/27 06:05:23;;;;;;;3.47;2.53;;;;;;;16.84;94.04;97574.41;7617255;23;20260;-68
2022/07/27 06:08:26;;;;;;;2.63;2.43;;;;;;;16.89;94.14;97577.41;7616646;23;20699;-68
2022/07/27 06:11:28;;;;;;;3.07;2.07;;;;;;;16.94;94.04;97583.09;7590236;23;20208;-68
2022/07/27 06:14:31;;;;;;;2.60;2.40;;;;;;;17.03;94.01;97578.59;7590062;23;20343;-68
2022/07/27 06:17:34;;;;;;;3.47;2.23;;;;;;;17.14;93.83;97567.59;7615040;23;20524;-68
2022/07/27 06:20:36;;;;;;;3.43;2.60;;;;;;;17.24;93.52;97578.94;7590143;23;20733;-68
2022/07/27 06:23:38;;;;;;;2.80;2.50;;;;;;;17.34;93.62;97581.44;7589126;23;20220;-68
2022/07/27 06:26:40;;;;;;;2.90;2.37;;;;;;;17.46;93.10;97576.59;7616007;23;20755;-68
2022/07/27 06:29:42;;;;;;;7.70;2.70;;;;;;;17.58;92.87;97584.03;7614948;23;20208;-68
2022/07/27 06:32:45;;;;;;;2.53;2.33;;;;;;;17.75;92.52;97586.75;7616675;23;20219;-68
2022/07/27 06:35:47;;;;;;;3.10;2.53;;;;;;;17.90;92.08;97582.34;7615591;23;20217;-68
2022/07/27 06:38:49;;;;;;;2.23;1.90;;;;;;;18.08;91.34;97588.28;7589380;23;20212;-68
2022/07/27 06:41:51;;;;;;;2.10;2.00;;;;;;;18.29;90.82;97587.72;7614399;23;20275;-68
2022/07/27 06:44:59;;;;;;;2.27;2.17;;;;;;;18.59;89.77;97592.28;7614389;23;20228;-68
2022/07/27 06:48:01;;;;;;;2.43;2.10;;;;;;;18.74;89.43;97590.53;7589259;23;20209;-67
2022/07/27 06:51:03;;;;;;;4.90;2.53;;;;;;;18.97;88.50;97585.16;7615442;23;20180;-67
2022/07/27 06:54:05;;;;;;;2.13;1.93;;;;;;;19.32;87.26;97586.41;7590781;23;20204;-67
2022/07/27 06:57:07;;;;;;;4.00;2.33;;;;;;;19.64;85.73;97590.69;7614482;23;20184;-67
2022/07/27 07:00:10;;;;;;;2.80;2.27;;;;;;;19.87;84.74;97575.34;7588598;23;20183;-66
2022/07/27 07:03:12;;;;;;;4.23;2.20;;;;;;;20.13;83.42;97572.22;7588593;23;20231;-66
2022/07/27 07:06:14;;;;;;;2.17;1.97;;;;;;;20.52;82.34;97568.41;7589492;23;20525;-67
2022/07/27 07:09:16;;;;;;;1.90;1.80;;;;;;;20.73;80.95;97579.19;7614030;23;20284;-67
2022/07/27 07:12:19;;;;;;;2.87;2.30;;;;;;;20.72;80.85;97561.44;7615032;23;20632;-65
2022/07/27 07:15:25;;;;;;;3.07;2.47;;;;;;;21.07;80.06;97575.81;7615394;23;20617;-67
2022/07/27 07:18:27;;;;;;;2.70;2.40;;;;;;;21.40;78.27;97567.25;7614708;23;20209;-67
2022/07/27 07:21:30;;;;;;;2.60;1.97;;;;;;;21.54;77.67;97569.03;7613943;23;20675;-67
2022/07/27 07:24:32;;;;;;;2.83;1.93;;;;;;;22.00;75.84;97559.47;7614124;23;20208;-67
2022/07/27 07:27:34;;;;;;;3.77;2.20;;;;;;;22.39;73.82;97558.81;7613843;23;20718;-67
2022/07/27 07:30:36;;;;;;;2.00;1.70;;;;;;;22.89;72.02;97554.03;7614231;23;20275;-67
2022/07/27 07:33:38;;;;;;;3.30;1.80;;;;;;;23.15;71.01;97551.41;7615370;23;20560;-67
2022/07/27 07:36:40;;;;;;;1.73;1.63;;;;;;;23.47;66.85;97555.13;7614707;23;20283;-67
2022/07/27 07:39:42;;;;;;;1.90;1.80;;;;;;;23.54;67.94;97557.88;7614410;23;20228;-69
2022/07/27 07:42:59;;;;;;;2.10;1.70;;;;;;;23.62;67.44;97557.66;7614217;23;20656;-70
2022/07/27 07:46:01;;;;;;;2.37;1.90;;;;;;;23.16;68.85;97561.13;7592447;23;20692;-68
2022/07/27 07:49:04;;;;;;;4.20;2.30;;;;;;;23.53;68.21;97559.72;7619223;23;20218;-70
2022/07/27 07:52:07;;;;;;;2.60;1.90;;;;;;;23.98;66.77;97556.34;7614498;23;20292;-69
2022/07/27 07:55:10;;;;;;;2.27;1.73;;;;;;;23.85;67.90;97563.44;7614458;23;20251;-68
2022/07/27 07:58:12;;;;;;;1.60;1.50;;;;;;;23.70;68.04;97557.44;7587833;23;20703;-68
2022/07/27 08:01:14;;;;;;;1.80;1.70;;;;;;;23.81;68.23;97547.88;7613574;23;20267;-69
2022/07/27 08:04:17;;;;;;;2.17;1.97;;;;;;;24.52;65.50;97556.00;7587461;23;20676;-68
2022/07/27 08:07:19;;;;;;;2.80;1.70;;;;;;;25.06;62.76;97550.09;7614805;23;20294;-67
2022/07/27 08:10:22;;;;;;;2.40;2.17;;;;;;;25.55;61.48;97543.09;7589249;23;20215;-67
2022/07/27 08:13:24;;;;;;;1.87;1.77;;;;;;;25.65;60.80;97540.75;7612921;23;20267;-68
2022/07/27 08:21:01;;;;;;;1.73;1.63;;;;;;;26.46;58.86;97543.22;7614871;23;20204;-67
2022/07/27 08:24:03;;;;;;;3.42;2.00;;;;;;;26.60;57.85;97539.28;7615107;23;20807;-66
2022/07/27 08:27:05;;;;;;;3.05;1.58;;;;;;;26.83;55.91;97530.47;7615280;23;20578;-65
2022/07/27 08:30:09;;;;;;;1.50;1.40;;;;;;;26.93;56.26;97536.19;7613484;23;20573;-65
2022/07/27 08:33:12;;;;;;;3.08;1.85;;;;;;;27.58;54.63;97540.81;7615655;23;20208;-66
2022/07/27 08:36:14;;;;;;;2.58;2.38;;;;;;;27.75;53.08;97537.16;7613096;23;20649;-71
2022/07/27 08:39:16;;;;;;;2.47;2.28;;;;;;;26.92;51.91;97526.38;7613287;23;20247;-64
2022/07/27 08:42:41;;;;;;;2.42;2.22;;;;;;;27.05;52.22;97538.94;7614919;23;20219;-66
2022/07/27 08:45:46;;;;;;;2.83;2.15;;;;;;;27.13;53.06;97534.00;7614224;23;20208;-67
2022/07/27 08:48:49;;;;;;;2.95;2.13;;;;;;;27.27;53.51;97534.59;7614453;23;20224;-68
2022/07/27 08:51:51;;;;;;;4.15;2.35;;;;;;;27.65;53.72;97546.97;7588561;23;20207;-68
2022/07/27 08:54:53;;;;;;;2.70;2.50;;;;;;;27.98;51.11;97549.06;7615398;23;20209;-67
2022/07/27 08:57:55;;;;;;;3.15;2.85;;;;;;;28.19;50.75;97540.34;7613753;23;20590;-69
2022/07/27 09:01:03;;;;;;;4.13;2.65;;;;;;;27.95;50.64;97539.50;7587629;23;20212;-66
2022/07/27 09:04:08;;;;;;;2.63;2.42;;;;;;;27.15;52.02;97540.00;7614083;23;20668;-68
2022/07/27 09:07:26;;;;;;;2.53;2.33;;;;;;;26.52;54.04;97541.50;7612602;23;20208;-66
2022/07/27 09:10:34;;;;;;;2.20;2.00;;;;;;;26.21;57.00;97545.16;7613359;23;20232;-67
2022/07/27 09:13:36;;;;;;;3.05;2.70;;;;;;;26.13;56.16;97543.59;7614732;23;20307;-67
2022/07/27 09:16:38;;;;;;;3.05;2.53;;;;;;;26.42;56.81;97544.75;7613637;23;20676;-65
2022/07/27 09:20:10;;;;;;;2.53;2.33;;;;;;;26.49;55.92;97539.22;7587587;23;20215;-65
2022/07/27 09:23:27;;;;;;;5.00;2.42;;;;;;;26.71;51.12;97545.81;7616651;23;20216;-66
2022/07/27 09:26:29;;;;;;;3.15;2.85;;;;;;;26.76;51.87;97545.94;7589280;23;20547;-66
2022/07/27 09:29:35;;;;;;;3.65;3.10;;;;;;;27.05;49.55;97544.34;7615170;23;20298;-65
2022/07/27 09:32:50;;;;;;;2.75;2.50;;;;;;;26.90;51.21;97544.72;7616251;23;20220;-67
2022/07/27 09:35:58;;;;;;;3.58;2.72;;;;;;;26.63;52.29;97538.03;7614282;23;20205;-69
2022/07/27 09:39:06;;;;;;;2.92;2.72;;;;;;;26.50;53.17;97532.78;7616946;23;20215;-65
2022/07/27 09:42:15;;;;;;;3.53;2.75;;;;;;;26.04;52.33;97547.66;7589889;23;20197;-68
2022/07/27 09:45:38;;;;;;;2.65;2.45;;;;;;;25.96;55.19;97551.44;7615557;23;20222;-69
2022/07/27 09:48:42;;;;;;;3.53;2.95;;;;;;;25.89;55.11;97557.97;7615973;23;20213;-69
2022/07/27 09:51:45;;;;;;;2.95;2.53;;;;;;;25.80;57.63;97554.75;7590001;23;20230;-70
2022/07/27 09:55:04;;;;;;;2.80;2.60;;;;;;;25.73;58.13;97560.22;7594178;23;20224;-69
2022/07/27 09:58:07;;;;;;;3.15;2.85;;;;;;;25.37;57.43;97560.91;7591004;23;20668;-69
2022/07/27 10:01:19;;;;;;;4.90;2.67;;;;;;;25.29;58.98;97563.88;7615977;23;20219;-69
2022/07/27 10:04:23;;;;;;;3.15;2.85;;;;;;;25.23;60.25;97559.34;7615955;23;20672;-67
2022/07/27 10:07:25;;;;;;;2.55;2.40;;;;;;;25.15;61.30;97569.59;7615654;23;20239;-69
2022/07/27 10:10:27;;;;;;;6.30;4.25;;;;;;;24.97;60.51;97568.44;7615956;23;20291;-69
2022/07/27 10:13:29;;;;;;;2.80;2.60;;;;;;;24.94;61.70;97570.78;7615293;23;20219;-73
2022/07/27 10:16:39;;;;;;;5.63;3.00;;;;;;;24.70;61.77;97563.38;7616304;23;20571;-69
2022/07/27 10:19:48;;;;;;;3.10;2.90;;;;;;;24.63;62.80;97563.41;7588314;23;20664;-68
2022/07/27 10:22:57;;;;;;;3.42;2.97;;;;;;;24.43;63.59;97573.47;7615157;23;20252;-68
2022/07/27 10:26:17;;;;;;;2.90;2.60;;;;;;;24.19;64.92;97570.41;7615691;23;20232;-67
2022/07/27 10:29:21;;;;;;;2.38;2.28;;;;;;;24.12;65.44;97579.56;7615119;23;20216;-68
2022/07/27 10:32:31;;;;;;;3.88;2.85;;;;;;;23.93;66.63;97575.84;7614780;23;20660;-69
2022/07/27 10:35:34;;;;;;;4.20;2.80;;;;;;;23.65;68.20;97576.09;7614549;23;20216;-68
2022/07/27 10:38:57;;;;;;;2.83;2.63;;;;;;;23.33;69.59;97574.19;7596234;23;20251;-67
2022/07/27 10:42:29;;;;;;;3.40;3.10;;;;;;;23.11;70.78;97587.00;7615055;23;20224;-68
2022/07/27 10:45:39;;;;;;;2.93;2.73;;;;;;;22.84;71.93;97588.00;7615209;23;20649;-66
2022/07/27 10:49:36;;;;;;;3.33;3.03;;;;;;;22.72;72.57;97593.09;7614326;23;20258;-68
2022/07/27 10:53:01;;;;;;;4.73;3.50;;;;;;;22.56;73.49;97607.72;7619906;23;20593;-64
2022/07/27 10:56:06;;;;;;;6.17;3.70;;;;;;;22.41;74.62;97599.78;7615329;23;20213;-65
2022/07/27 10:59:08;;;;;;;4.20;3.80;;;;;;;22.26;75.64;97600.97;7615102;23;20282;-65
2022/07/27 11:02:12;;;;;;;4.27;3.80;;;;;;;22.32;76.36;97606.38;7615418;23;20216;-65
2022/07/27 11:05:14;;;;;;;3.87;3.53;;;;;;;22.38;76.37;97608.25;7614902;23;20676;-65
2022/07/27 11:08:42;;;;;;;4.20;3.80;;;;;;;22.43;76.14;97611.19;7589156;23;20244;-66
2022/07/27 11:11:51;;;;;;;3.97;3.67;;;;;;;22.39;76.38;97601.84;7615220;23;20228;-66
2022/07/27 11:14:55;;;;;;;4.83;3.90;;;;;;;21.72;74.18;97593.56;7614832;23;20213;-68
2022/07/27 11:17:57;;;;;;;4.20;3.80;;;;;;;21.10;75.84;97588.84;7613968;23;20297;-66
2022/07/27 11:21:27;;;;;;;3.87;3.57;;;;;;;20.84;76.58;97597.47;7614628;23;20656;-66
2022/07/27 11:24:32;;;;;;;3.53;2.83;;;;;;;20.82;76.90;97604.03;7614740;23;20208;-66
2022/07/27 11:27:48;;;;;;;3.40;2.70;;;;;;;20.81;76.98;97616.63;7614842;23;20315;-66
2022/07/27 11:30:51;;;;;;;5.37;2.70;;;;;;;20.88;76.84;97617.50;7614900;23;20663;-66
2022/07/27 11:33:58;;;;;;;2.80;2.37;;;;;;;20.84;76.36;97620.78;7588798;23;20213;-68
2022/07/27 11:37:11;;;;;;;3.37;2.50;;;;;;;20.59;77.19;97622.94;7614464;23;20259;-67
2022/07/27 11:40:14;;;;;;;2.83;2.63;;;;;;;20.55;78.33;97627.03;7615028;23;20217;-66
2022/07/27 11:43:41;;;;;;;3.70;2.80;;;;;;;20.67;78.70;97630.88;7593005;23;20217;-66
2022/07/27 11:46:47;;;;;;;3.00;2.80;;;;;;;20.82;77.99;97622.81;7590205;23;20295;-66
2022/07/27 11:49:49;;;;;;;3.10;2.30;;;;;;;20.83;77.08;97621.81;7613688;23;20263;-65
2022/07/27 11:52:59;;;;;;;2.50;2.30;;;;;;;20.78;76.63;97613.47;7613505;23;20220;-66
2022/07/27 11:56:02;;;;;;;2.40;2.20;;;;;;;20.78;77.31;97611.63;7614248;23;20212;-65
2022/07/27 11:59:08;;;;;;;2.70;2.33;;;;;;;20.81;77.36;97611.25;7616126;23;20228;-67
2022/07/27 12:02:21;;;;;;;4.37;2.40;;;;;;;20.59;77.78;97612.22;7614826;23;20212;-66
2022/07/27 12:05:23;;;;;;;5.13;2.67;;;;;;;20.55;78.67;97616.31;7567706;23;20215;-66
2022/07/27 12:08:26;;;;;;;2.53;2.17;;;;;;;20.73;78.49;97610.53;7614721;23;20755;-66
2022/07/27 12:11:43;;;;;;;2.30;2.03;;;;;;;20.83;77.66;97617.25;7613340;23;20730;-66
2022/07/27 12:14:49;;;;;;;2.93;1.93;;;;;;;20.89;77.18;97629.91;7616183;23;20216;-66
2022/07/27 12:17:56;;;;;;;2.13;2.03;;;;;;;20.87;77.00;97620.38;7588977;23;20216;-66
2022/07/27 12:20:58;;;;;;;2.13;1.77;;;;;;;20.80;77.39;97616.81;7613511;23;20219;-65
2022/07/27 12:24:00;;;;;;;3.10;1.70;;;;;;;20.78;77.47;97610.78;7614011;23;20306;-66
2022/07/27 12:27:10;;;;;;;2.60;1.90;;;;;;;20.79;77.54;97605.25;7612665;23;20664;-67
2022/07/27 12:30:14;;;;;;;2.43;2.23;;;;;;;20.76;77.54;97594.06;7588892;23;20184;-68
2022/07/27 12:33:36;;;;;;;5.90;3.13;;;;;;;20.66;77.99;97597.06;7613191;23;20188;-69
2022/07/27 12:36:40;;;;;;;3.50;2.37;;;;;;;20.64;78.79;97588.38;7614345;23;20212;-65
2022/07/27 12:39:44;;;;;;;4.13;3.33;;;;;;;20.63;79.20;97587.53;7577621;23;20213;-66
2022/07/27 12:42:54;;;;;;;3.50;3.20;;;;;;;20.66;80.31;97580.97;7577598;23;20213;-66
2022/07/27 12:45:56;;;;;;;3.03;2.83;;;;;;;20.74;80.25;97577.34;7579321;23;20237;-65
2022/07/27 12:48:59;;;;;;;4.70;3.43;;;;;;;20.84;79.71;97580.53;7578083;23;20212;-66
2022/07/27 12:52:06;;;;;;;4.07;3.70;;;;;;;20.95;79.15;97588.09;7577168;23;20212;-66
2022/07/27 12:55:09;;;;;;;3.43;3.13;;;;;;;21.12;79.26;97592.19;7577772;23;20272;-65
2022/07/27 12:58:16;;;;;;;4.20;3.87;;;;;;;21.24;79.51;97588.00;7580388;23;20558;-66
2022/07/27 13:01:18;;;;;;;4.00;3.37;;;;;;;21.29;79.07;97596.28;7580821;23;20212;-66
2022/07/27 13:04:21;;;;;;;5.17;4.27;;;;;;;21.32;80.07;97593.22;7580259;23;20236;-66
2022/07/27 13:07:24;;;;;;;3.50;3.20;;;;;;;21.32;79.93;97589.72;7580895;23;20213;-66
2022/07/27 13:10:26;;;;;;;3.70;3.40;;;;;;;21.25;79.79;97599.56;7579977;23;20217;-66
2022/07/27 13:13:28;;;;;;;3.53;3.10;;;;;;;21.14;80.22;97600.88;7580443;23;20209;-65
2022/07/27 13:16:30;;;;;;;3.80;3.20;;;;;;;21.08;80.48;97596.25;7578776;23;20217;-66
2022/07/27 13:19:33;;;;;;;4.00;3.67;;;;;;;20.99;80.68;97600.09;7580140;23;20209;-66
2022/07/27 13:22:36;;;;;;;3.17;2.97;;;;;;;20.95;80.75;97598.81;7578635;23;20257;-66
2022/07/27 13:25:38;;;;;;;3.53;3.23;;;;;;;20.96;80.69;97609.34;7581333;23;20522;-64
2022/07/27 13:28:44;;;;;;;3.70;3.40;;;;;;;20.97;81.41;97599.44;7580499;23;20209;-65
2022/07/27 13:31:48;;;;;;;3.63;3.33;;;;;;;20.98;81.47;97591.19;7579926;23;20205;-66
2022/07/27 13:34:58;;;;;;;3.20;2.80;;;;;;;21.04;81.07;97591.47;7556065;23;20244;-64
2022/07/27 13:38:00;;;;;;;3.33;2.90;;;;;;;21.06;80.74;97595.66;7592372;23;20223;-62
2022/07/27 13:41:02;;;;;;;3.57;2.90;;;;;;;21.14;80.50;97600.03;7615950;23;20212;-64
2022/07/27 13:44:06;;;;;;;3.93;3.53;;;;;;;21.19;80.66;97597.63;7616334;23;20216;-65
2022/07/27 13:47:19;;;;;;;3.97;3.40;;;;;;;21.13;81.37;97598.38;7615735;23;20213;-66
2022/07/27 13:50:21;;;;;;;4.43;3.23;;;;;;;21.10;81.50;97604.94;7617016;23;20228;-66
2022/07/27 13:53:26;;;;;;;3.50;3.20;;;;;;;21.10;81.22;97598.75;7614643;23;20216;-65
2022/07/27 13:56:30;;;;;;;3.67;3.07;;;;;;;21.13;80.61;97615.31;7589167;23;20469;-65
2022/07/27 13:59:32;;;;;;;15.73;7.87;;;;;;;21.21;80.18;97612.53;7616130;23;20208;-66
2022/07/27 14:02:34;;;;;;;7.37;4.47;;;;;;;21.38;80.36;97615.78;7613745;23;20213;-66
2022/07/27 14:05:37;;;;;;;5.73;3.50;;;;;;;21.64;79.36;97607.13;7615415;23;20588;-67
2022/07/27 14:08:46;;;;;;;3.93;3.00;;;;;;;22.01;78.17;97612.19;7616963;23;20231;-66
2022/07/27 14:11:48;;;;;;;6.00;3.20;;;;;;;22.45;77.05;97611.00;7615008;23;20215;-66
2022/07/27 14:14:53;;;;;;;3.53;3.20;;;;;;;22.80;75.87;97612.59;7615416;23;20620;-67
2022/07/27 14:17:56;;;;;;;3.80;3.13;;;;;;;22.90;75.30;97614.09;7615075;23;20347;-65
2022/07/27 14:21:05;;;;;;;3.50;3.20;;;;;;;22.87;75.46;97609.94;7615226;23;20235;-66
2022/07/27 14:24:07;;;;;;;4.53;2.90;;;;;;;22.81;75.74;97611.56;7614751;23;20220;-66
2022/07/27 14:27:09;;;;;;;3.40;2.87;;;;;;;22.73;76.27;97611.72;7615292;23;20487;-66
2022/07/27 14:30:11;;;;;;;4.20;3.07;;;;;;;22.71;76.09;97608.41;7591442;23;20235;-66
2022/07/27 14:33:20;;;;;;;3.30;2.53;;;;;;;22.59;76.33;97617.25;7615178;23;20509;-66
2022/07/27 14:36:22;;;;;;;2.50;2.30;;;;;;;22.42;76.04;97617.59;7614163;23;20208;-68
2022/07/27 14:39:24;;;;;;;3.13;2.83;;;;;;;22.28;76.36;97615.84;7589330;23;20290;-68
2022/07/27 14:42:26;;;;;;;2.60;2.40;;;;;;;22.22;76.17;97608.59;7616527;23;20209;-68